ウィニペグ の空港の天気 - METARとTAF

ウィニペグ国際空港 ( CYWG / YWG ) - カナダ マニトバ州ウィニペグ
飛行場実況気象(Metar)
観測時間05/26 18:00 CDT (05/26 23:00 UTC)
風向・風速南南東 2m/s
視程10km以上
天気現象
少しの雲 雲底高度 1070m
少しの雲 雲底高度 3350m
全天の4割程度の雲 雲底高度 8230m
気温21℃
湿度56%
気圧1007.7hPa
METARCYWG 262300Z 16003KT 120V230 15SM FEW035 FEW110 SCT270 21/12 A2975 RMK CU1AC1CI1 SLP077 DENSITY ALT 1900FT
過去の天気等 Google飛行場航空写真 Wunderground天気予報

過去48時間のMETAR

飛行場予報(TAF)
発表時間: 5/26 12:52 CDT (5/26 17:52 UTC)
予報対象時間: 26日13時 CDT ~ 27日13時 CDT
風向・風速不定 2m/s
視程10km以上
全天の8割程度の雲 雲底高度 1220m
26日13時 CDT ~ 26日15時 CDT に一時的に
視程10km以上
天気現象弱い雨
全天の4割程度の雲 雲底高度 610m
全天を覆う雲 雲底高度 1220m
26日15時 CDT から
風向・風速南 4m/s
視程10km以上
全天の4割程度の雲 雲底高度 1220m
全天の8割程度の雲 雲底高度 1830m
26日19時 CDT から
風向・風速南 5m/s
視程10km以上
全天の4割程度の雲 雲底高度 1830m
27日7時 CDT から
風向・風速西南西 8m/s
視程10km以上
全天の4割程度の雲 雲底高度 2440m
TAF CYWG 261752Z 2618/2718 VRB03KT P6SM BKN040
TEMPO 2618/2620 P6SM -RA SCT020 OVC040
FM262000 17008KT P6SM SCT040 BKN060
FM270000 17010KT P6SM SCT060
FM271200 25015KT P6SM SCT080 RMK NXT FCST BY 270000Z